»·PEaware :: N515ZT KBFL-KSMX

N515ZT :: KBFL-KSMX

FLIGHT INFORMATION

Flight Status: Arrived
Operator: Privately registered:
United States
More flights under this callsign
Pilot: Marty P. (27464)
Aircraft: BEECH AIRCRAFT BARON
(BE58)
More flights by this aircraft type
Origin: KBFL Meadows
United States
Destination: KSMX Santa Maria Pub/Capt Hancock
United States
More flights between these airports :: More routes between these airports
Route: KBFL FLW KOAKS KSMX
File this flight plan on PilotEdge
Remarks: ff
Altitude:
(Current/Filed)
7,500ft
Speed:
(Current/Filed)
200kts
Departed: 13-Jan-20 11:13 AM
Arrived: 13-Jan-20 12:14 PM
Distance/Time
Traveled:
75nm/1:01
Distance/Time
To Go:
Arrived

Flight Plot

Page will automatically refresh every two minutes.

Flight plan parsing failed; only flown route is shown


Map Options




Map Legend


Flown Route
Filed Route
Departure Airport
Arrival Airport
Navaid (VOR, NDB)
Fix

Horizontal Profiles

Position Reports

Time Latitude Longitude Heading Altitude Ground
Speed
13-Jan-20 11:04 35.434108 -119.054297 135 510ft 12kts
13-Jan-20 11:05 35.432121 -119.051882 135 510ft 17kts
13-Jan-20 11:06 35.430114 -119.049471 136 510ft 17kts
13-Jan-20 11:07 35.429478 -119.048695 133 510ft 0kts
13-Jan-20 11:08 35.428826 -119.047902 136 510ft 12kts
13-Jan-20 11:09 35.426977 -119.045664 135 510ft 16kts
13-Jan-20 11:10 35.425726 -119.044751 226 510ft 0kts
13-Jan-20 11:11 35.425498 -119.045255 263 510ft 11kts
13-Jan-20 11:12 35.430640 -119.052343 313 548ft 113kts
13-Jan-20 11:13 35.448565 -119.077094 311 1241ft 144kts
13-Jan-20 11:14 35.457332 -119.105031 239 2550ft 133kts
13-Jan-20 11:15 35.435963 -119.104099 115 3678ft 131kts
13-Jan-20 11:16 35.429195 -119.077106 101 4782ft 130kts
13-Jan-20 11:17 35.419128 -119.049079 118 5882ft 135kts
13-Jan-20 11:18 35.403748 -119.024226 127 6912ft 137kts
13-Jan-20 11:19 35.387224 -119.002019 130 7975ft 131kts
13-Jan-20 11:20 35.368857 -118.978835 133 8536ft 162kts
13-Jan-20 11:21 35.346102 -118.950968 134 8595ft 187kts
13-Jan-20 11:22 35.320808 -118.920278 134 8548ft 195kts
13-Jan-20 11:23 35.290572 -118.902094 205 8422ft 191kts
13-Jan-20 11:24 35.268265 -118.930504 242 8501ft 182kts
13-Jan-20 11:25 35.255784 -118.967188 257 8525ft 179kts
13-Jan-20 11:26 35.247591 -119.005230 261 8510ft 178kts
13-Jan-20 11:27 35.240535 -119.043283 263 8499ft 178kts
13-Jan-20 11:28 35.233884 -119.080755 263 8497ft 177kts
13-Jan-20 11:29 35.227313 -119.118002 263 8516ft 177kts
13-Jan-20 11:30 35.220850 -119.154645 263 8507ft 179kts
13-Jan-20 11:31 35.214584 -119.190102 263 8502ft 179kts
13-Jan-20 11:32 35.208420 -119.224920 263 8501ft 179kts
13-Jan-20 11:33 35.202275 -119.259580 263 8500ft 179kts
13-Jan-20 11:34 35.196173 -119.293933 263 8501ft 179kts
13-Jan-20 11:35 35.190082 -119.328135 263 8493ft 179kts
13-Jan-20 11:36 35.183689 -119.363933 263 8544ft 177kts
13-Jan-20 11:37 35.177310 -119.399731 263 8508ft 179kts
13-Jan-20 11:38 35.171246 -119.433653 263 8504ft 179kts
13-Jan-20 11:39 35.165121 -119.467844 263 8504ft 179kts
13-Jan-20 11:40 35.159033 -119.501746 263 8510ft 178kts
13-Jan-20 11:41 35.153003 -119.535237 263 8526ft 177kts
13-Jan-20 11:42 35.147462 -119.566077 263 8515ft 177kts
13-Jan-20 11:43 35.141853 -119.597207 263 8507ft 176kts
13-Jan-20 11:44 35.135616 -119.631701 262 8504ft 174kts
13-Jan-20 11:45 35.129081 -119.667793 262 8501ft 173kts
13-Jan-20 11:46 35.122700 -119.703071 261 8498ft 172kts
13-Jan-20 11:47 35.115901 -119.740544 261 8494ft 170kts
13-Jan-20 11:48 35.109700 -119.774605 260 8488ft 169kts
13-Jan-20 11:49 35.103392 -119.809115 261 8488ft 169kts
13-Jan-20 11:50 35.097620 -119.840714 261 8490ft 169kts
13-Jan-20 11:51 35.085333 -119.872351 234 8547ft 172kts
13-Jan-20 11:52 35.064476 -119.899850 232 8510ft 176kts
13-Jan-20 11:53 35.042679 -119.927012 230 8487ft 177kts
13-Jan-20 11:54 35.020581 -119.953970 230 8488ft 177kts
13-Jan-20 11:55 34.998134 -119.981278 230 8515ft 175kts
13-Jan-20 11:56 34.975259 -120.009088 230 8514ft 176kts
13-Jan-20 11:57 34.950084 -120.039760 229 7979ft 196kts
13-Jan-20 11:58 34.925332 -120.069783 229 7153ft 206kts
13-Jan-20 11:59 34.901958 -120.098112 228 6361ft 208kts
13-Jan-20 12:00 34.876803 -120.128538 228 5475ft 208kts
13-Jan-20 12:01 34.852876 -120.157515 228 4686ft 207kts
13-Jan-20 12:02 34.830218 -120.184899 228 4422ft 187kts
13-Jan-20 12:03 34.807320 -120.212594 228 4423ft 180kts
13-Jan-20 12:04 34.795070 -120.243233 283 4342ft 173kts
13-Jan-20 12:05 34.802339 -120.277296 284 4172ft 183kts
13-Jan-20 12:06 34.809524 -120.310333 285 3580ft 185kts
13-Jan-20 12:08 34.816381 -120.341568 285 2768ft 168kts
13-Jan-20 12:09 34.826905 -120.367077 308 1941ft 167kts
13-Jan-20 12:10 34.843713 -120.389070 317 1566ft 172kts
13-Jan-20 12:11 34.861941 -120.409016 313 1290ft 140kts
13-Jan-20 12:12 34.876296 -120.425884 316 884ft 107kts
13-Jan-20 12:13 34.886442 -120.438193 313 503ft 99kts
13-Jan-20 12:14 34.895887 -120.449527 316 265ft 38kts
13-Jan-20 12:15 34.897878 -120.450275 0 265ft 0kts
13-Jan-20 12:16 34.897859 -120.449431 135 265ft 12kts
13-Jan-20 12:17 34.896675 -120.447697 51 265ft 9kts
13-Jan-20 12:18 34.896769 -120.446597 257 265ft 0kts

Navigation Log

Ident Type
Flight plan parsing failed, navigation log unavailable